createdAt,value
2018-09-18T00:00:27.944Z,1003.7
2018-09-18T00:01:29.304Z,1003.7
2018-09-18T00:02:30.658Z,1003.6
2018-09-18T00:03:32.019Z,1003.7
2018-09-18T00:04:33.392Z,1003.7
2018-09-18T00:05:34.753Z,1003.7
2018-09-18T00:06:36.112Z,1003.7
2018-09-18T00:07:37.484Z,1003.7
2018-09-18T00:08:38.834Z,1003.7
2018-09-18T00:09:40.203Z,1003.7
2018-09-18T00:10:41.573Z,1003.7
2018-09-18T00:11:42.939Z,1003.7
2018-09-18T00:12:44.348Z,1003.7
2018-09-18T00:13:45.708Z,1003.6
2018-09-18T00:14:47.074Z,1003.6
2018-09-18T00:15:48.566Z,1003.6
2018-09-18T00:16:49.918Z,1003.6
2018-09-18T00:17:51.274Z,1003.7
2018-09-18T00:18:52.654Z,1003.6
2018-09-18T00:19:54.235Z,1003.6
2018-09-18T00:20:55.583Z,1003.6
2018-09-18T00:21:56.943Z,1003.6
2018-09-18T00:22:58.308Z,1003.6
2018-09-18T00:23:59.667Z,1003.5
2018-09-18T00:25:01.156Z,1003.5
2018-09-18T00:26:02.562Z,1003.5
2018-09-18T00:27:03.916Z,1003.5
2018-09-18T00:28:05.284Z,1003.5
2018-09-18T00:29:06.652Z,1003.5
2018-09-18T00:30:08.167Z,1003.5
2018-09-18T00:31:09.517Z,1003.5
2018-09-18T00:32:10.881Z,1003.5
2018-09-18T00:33:12.257Z,1003.5
2018-09-18T00:34:13.612Z,1003.5
2018-09-18T00:35:14.998Z,1003.6
2018-09-18T00:36:16.348Z,1003.5
2018-09-18T00:37:17.738Z,1003.6
2018-09-18T00:38:19.108Z,1003.5
2018-09-18T00:39:20.458Z,1003.5
2018-09-18T00:40:21.820Z,1003.5
2018-09-18T00:41:23.179Z,1003.5
2018-09-18T00:42:24.550Z,1003.6
2018-09-18T00:43:25.909Z,1003.5
2018-09-18T00:44:27.293Z,1003.5
2018-09-18T00:45:28.654Z,1003.5
2018-09-18T00:46:30.024Z,1003.5
2018-09-18T00:47:31.384Z,1003.5
2018-09-18T00:48:32.810Z,1003.6
2018-09-18T00:49:34.175Z,1003.6
2018-09-18T00:50:35.539Z,1003.5
2018-09-18T00:51:36.935Z,1003.5
2018-09-18T00:52:38.327Z,1003.5
2018-09-18T00:53:39.693Z,1003.5
2018-09-18T00:54:41.047Z,1003.5
2018-09-18T00:55:42.418Z,1003.4
2018-09-18T00:56:43.839Z,1003.4
2018-09-18T00:57:45.198Z,1003.4
2018-09-18T00:58:46.899Z,1003.4
2018-09-18T00:59:48.435Z,1003.4
2018-09-18T01:00:49.783Z,1003.4
2018-09-18T01:01:51.135Z,1003.3
2018-09-18T01:02:52.505Z,1003.4
2018-09-18T01:03:53.853Z,1003.3
2018-09-18T01:04:55.229Z,1003.3
2018-09-18T01:05:56.639Z,1003.3
2018-09-18T01:06:57.997Z,1003.4
2018-09-18T01:07:59.343Z,1003.3
2018-09-18T01:09:00.706Z,1003.3
2018-09-18T01:10:02.078Z,1003.3
2018-09-18T01:11:03.430Z,1003.3
2018-09-18T01:12:04.794Z,1003.3
2018-09-18T01:13:06.162Z,1003.2
2018-09-18T01:14:07.550Z,1003.2
2018-09-18T01:15:08.905Z,1003.2
2018-09-18T01:16:10.258Z,1003.2
2018-09-18T01:17:11.618Z,1003.2
2018-09-18T01:18:12.977Z,1003.2
2018-09-18T01:19:14.372Z,1003.2
2018-09-18T01:20:15.742Z,1003.2
2018-09-18T01:21:17.136Z,1003.2
2018-09-18T01:22:18.486Z,1003.2
2018-09-18T01:23:19.863Z,1003.2
2018-09-18T01:24:21.243Z,1003.2
2018-09-18T01:25:22.581Z,1003.2
2018-09-18T01:26:23.947Z,1003.2
2018-09-18T01:27:25.312Z,1003.2
2018-09-18T01:28:26.678Z,1003.1
2018-09-18T01:29:28.057Z,1003.2
2018-09-18T01:30:29.437Z,1003.1
2018-09-18T01:31:30.798Z,1003.1
2018-09-18T01:32:32.157Z,1003.2
2018-09-18T01:33:33.668Z,1003.2
2018-09-18T01:34:35.035Z,1003.2
2018-09-18T01:35:36.399Z,1003.2
2018-09-18T01:36:38.027Z,1003.2
2018-09-18T01:37:39.400Z,1003.2
2018-09-18T01:38:40.757Z,1003.2
2018-09-18T01:39:42.134Z,1003.2
2018-09-18T01:40:43.502Z,1003.2
2018-09-18T01:41:44.862Z,1003.2
2018-09-18T01:42:46.225Z,1003.2
2018-09-18T01:43:47.664Z,1003.2
2018-09-18T01:44:48.994Z,1003.3
2018-09-18T01:45:50.353Z,1003.3
2018-09-18T01:46:51.748Z,1003.3
2018-09-18T01:47:53.113Z,1003.3
2018-09-18T01:48:54.473Z,1003.3
2018-09-18T01:49:55.826Z,1003.3
2018-09-18T01:50:57.220Z,1003.3
2018-09-18T01:51:58.588Z,1003.3
2018-09-18T01:52:59.950Z,1003.3
2018-09-18T01:54:01.326Z,1003.3
2018-09-18T01:55:02.694Z,1003.3
2018-09-18T01:56:04.084Z,1003.3
2018-09-18T01:57:05.443Z,1003.3
2018-09-18T01:58:06.793Z,1003.3
2018-09-18T01:59:08.154Z,1003.3
2018-09-18T02:00:09.505Z,1003.3
2018-09-18T02:01:10.863Z,1003.3
2018-09-18T02:02:12.343Z,1003.3
2018-09-18T02:03:13.708Z,1003.2
2018-09-18T02:04:15.358Z,1003.3
2018-09-18T02:05:16.732Z,1003.3
2018-09-18T02:06:18.158Z,1003.3
2018-09-18T02:07:19.518Z,1003.3
2018-09-18T02:08:20.875Z,1003.3
2018-09-18T02:09:22.235Z,1003.3
2018-09-18T02:10:23.625Z,1003.3
2018-09-18T02:11:24.986Z,1003.4
2018-09-18T02:12:26.343Z,1003.4
2018-09-18T02:13:27.699Z,1003.4
2018-09-18T02:14:29.079Z,1003.4
2018-09-18T02:15:30.454Z,1003.4
2018-09-18T02:16:31.864Z,1003.4
2018-09-18T02:17:33.240Z,1003.4
2018-09-18T02:18:34.708Z,1003.4
2018-09-18T02:19:36.230Z,1003.4
2018-09-18T02:20:37.624Z,1003.3
2018-09-18T02:21:39.195Z,1003.3
2018-09-18T02:22:40.553Z,1003.4
2018-09-18T02:23:42.035Z,1003.4
2018-09-18T02:24:43.520Z,1003.4
2018-09-18T02:25:44.879Z,1003.4
2018-09-18T02:26:46.290Z,1003.4
2018-09-18T02:27:47.658Z,1003.4
2018-09-18T02:28:49.033Z,1003.4
2018-09-18T02:29:50.446Z,1003.4
2018-09-18T02:30:51.808Z,1003.3
2018-09-18T02:31:53.197Z,1003.3
2018-09-18T02:32:54.549Z,1003.3
2018-09-18T02:33:55.921Z,1003.3
2018-09-18T02:34:57.293Z,1003.3
2018-09-18T02:35:58.639Z,1003.3
2018-09-18T02:37:00.011Z,1003.3
2018-09-18T02:38:01.361Z,1003.4
2018-09-18T02:39:02.766Z,1003.4
2018-09-18T02:40:04.123Z,1003.4
2018-09-18T02:41:05.553Z,1003.4
2018-09-18T02:42:06.916Z,1003.4
2018-09-18T02:43:08.845Z,1003.4
2018-09-18T02:44:10.225Z,1003.4
2018-09-18T02:45:11.566Z,1003.4
2018-09-18T02:46:12.926Z,1003.4
2018-09-18T02:47:14.295Z,1003.3
2018-09-18T02:48:15.675Z,1003.3
2018-09-18T02:49:17.033Z,1003.3
2018-09-18T02:50:18.419Z,1003.3
2018-09-18T02:51:19.783Z,1003.3
2018-09-18T02:52:21.148Z,1003.3
2018-09-18T02:53:22.591Z,1003.4
2018-09-18T02:54:23.956Z,1003.3
2018-09-18T02:55:25.315Z,1003.3
2018-09-18T02:56:26.906Z,1003.3
2018-09-18T02:57:28.301Z,1003.3
2018-09-18T02:58:29.679Z,1003.2
2018-09-18T02:59:31.080Z,1003.2
2018-09-18T03:00:32.511Z,1003.3
2018-09-18T03:01:33.868Z,1003.2
2018-09-18T03:02:35.309Z,1003.3
2018-09-18T03:03:36.690Z,1003.2
2018-09-18T03:04:38.071Z,1003.3
2018-09-18T03:05:39.721Z,1003.2
2018-09-18T03:06:41.115Z,1003.3
2018-09-18T03:07:42.488Z,1003.3
2018-09-18T03:08:43.855Z,1003.3
2018-09-18T03:09:45.366Z,1003.3
2018-09-18T03:10:46.719Z,1003.3
2018-09-18T03:11:48.324Z,1003.3
2018-09-18T03:12:49.695Z,1003.3
2018-09-18T03:13:51.097Z,1003.2
2018-09-18T03:14:52.656Z,1003.3
2018-09-18T03:15:54.095Z,1003.2
2018-09-18T03:16:55.456Z,1003.2
2018-09-18T03:17:56.820Z,1003.3
2018-09-18T03:18:58.184Z,1003.2
2018-09-18T03:19:59.542Z,1003.3
2018-09-18T03:21:00.952Z,1003.2
2018-09-18T03:22:02.234Z,1003.3
2018-09-18T03:23:03.606Z,1003.3
2018-09-18T03:24:04.957Z,1003.2
2018-09-18T03:25:06.306Z,1003.2
2018-09-18T03:26:07.670Z,1003.3
2018-09-18T03:27:09.098Z,1003.2
2018-09-18T03:28:10.449Z,1003.2
2018-09-18T03:29:11.811Z,1003.2
2018-09-18T03:30:13.176Z,1003.2
2018-09-18T03:31:14.529Z,1003.2
2018-09-18T03:32:15.905Z,1003.2
2018-09-18T03:33:17.271Z,1003.2
2018-09-18T03:34:18.706Z,1003.2
2018-09-18T03:35:20.068Z,1003.2
2018-09-18T03:36:21.426Z,1003.2
2018-09-18T03:37:22.824Z,1003.2
2018-09-18T03:38:24.180Z,1003.2
2018-09-18T03:39:25.534Z,1003.2
2018-09-18T03:40:26.911Z,1003.1
2018-09-18T03:41:28.348Z,1003.1
2018-09-18T03:42:29.711Z,1003.2
2018-09-18T03:43:31.125Z,1003.2
2018-09-18T03:44:32.565Z,1003.2
2018-09-18T03:45:34.089Z,1003.1
2018-09-18T03:46:35.438Z,1003.1
2018-09-18T03:47:36.811Z,1003.2
2018-09-18T03:48:38.234Z,1003.1
2018-09-18T03:49:39.596Z,1003.2
2018-09-18T03:50:40.964Z,1003.2
2018-09-18T03:51:42.389Z,1003.2
2018-09-18T03:52:43.745Z,1003.2
2018-09-18T03:53:45.106Z,1003.2
2018-09-18T03:54:46.466Z,1003.1
2018-09-18T03:55:47.834Z,1003.1
2018-09-18T03:56:49.204Z,1003.1
2018-09-18T03:57:50.737Z,1003.1
2018-09-18T03:58:52.098Z,1003.2
2018-09-18T03:59:53.468Z,1003.2
2018-09-18T04:00:55.768Z,1003.2
2018-09-18T04:01:57.615Z,1003.2
2018-09-18T04:02:59.573Z,1003.2
2018-09-18T04:04:00.851Z,1003.2
2018-09-18T04:05:02.210Z,1003.2
2018-09-18T04:06:03.562Z,1003.2
2018-09-18T04:07:04.921Z,1003.2
2018-09-18T04:08:06.277Z,1003.2
2018-09-18T04:09:07.621Z,1003.3
2018-09-18T04:10:08.979Z,1003.2
2018-09-18T04:11:10.351Z,1003.2
2018-09-18T04:12:11.704Z,1003.3
2018-09-18T04:13:13.055Z,1003.3
2018-09-18T04:14:14.429Z,1003.3
2018-09-18T04:15:15.775Z,1003.3
2018-09-18T04:16:17.137Z,1003.3
2018-09-18T04:17:18.511Z,1003.3
2018-09-18T04:18:19.850Z,1003.2
2018-09-18T04:19:21.209Z,1003.2
2018-09-18T04:20:22.576Z,1003.2
2018-09-18T04:21:23.929Z,1003.3
2018-09-18T04:22:25.316Z,1003.3
2018-09-18T04:23:26.670Z,1003.2
2018-09-18T04:24:28.021Z,1003.2
2018-09-18T04:25:29.387Z,1003.2
2018-09-18T04:26:30.751Z,1003.2
2018-09-18T04:27:32.096Z,1003.2
2018-09-18T04:28:33.461Z,1003.2
2018-09-18T04:29:35.725Z,1003.2
2018-09-18T04:30:37.096Z,1003.2
2018-09-18T04:31:38.457Z,1003.2
2018-09-18T04:32:39.809Z,1003.2
2018-09-18T04:33:41.177Z,1003.3
2018-09-18T04:34:42.532Z,1003.2
2018-09-18T04:35:43.897Z,1003.3
2018-09-18T04:36:45.265Z,1003.3
2018-09-18T04:37:46.650Z,1003.3
2018-09-18T04:38:48.001Z,1003.3
2018-09-18T04:39:49.369Z,1003.3
2018-09-18T04:40:50.731Z,1003.2
2018-09-18T04:41:52.098Z,1003.3
2018-09-18T04:42:53.451Z,1003.3
2018-09-18T04:43:54.807Z,1003.3
2018-09-18T04:44:56.162Z,1003.3
2018-09-18T04:45:57.540Z,1003.3
2018-09-18T04:46:58.887Z,1003.2
2018-09-18T04:48:00.250Z,1003.2
2018-09-18T04:49:01.606Z,1003.2
2018-09-18T04:50:02.966Z,1003.3
2018-09-18T04:51:04.327Z,1003.3
2018-09-18T04:52:05.680Z,1003.3
2018-09-18T04:53:07.035Z,1003.3
2018-09-18T04:54:08.406Z,1003.4
2018-09-18T04:55:09.775Z,1003.4
2018-09-18T04:56:11.139Z,1003.3
2018-09-18T04:57:12.500Z,1003.4
2018-09-18T04:58:13.870Z,1003.3
2018-09-18T04:59:15.222Z,1003.4
2018-09-18T05:00:16.580Z,1003.4
2018-09-18T05:01:17.934Z,1003.4
2018-09-18T05:02:19.296Z,1003.3
2018-09-18T05:03:20.670Z,1003.4
2018-09-18T05:04:22.026Z,1003.4
2018-09-18T05:05:23.393Z,1003.4
2018-09-18T05:06:24.741Z,1003.4
2018-09-18T05:07:26.112Z,1003.5
2018-09-18T05:08:27.467Z,1003.5
2018-09-18T05:09:28.900Z,1003.5
2018-09-18T05:10:30.162Z,1003.6
2018-09-18T05:11:31.511Z,1003.6
2018-09-18T05:12:32.865Z,1003.6
2018-09-18T05:13:34.232Z,1003.6
2018-09-18T05:14:35.601Z,1003.7
2018-09-18T05:15:36.960Z,1003.7
2018-09-18T05:16:38.356Z,1003.7
2018-09-18T05:17:39.741Z,1003.7
2018-09-18T05:18:41.107Z,1003.7
2018-09-18T05:19:42.460Z,1003.7
2018-09-18T05:20:43.835Z,1003.7
2018-09-18T05:21:45.187Z,1003.7
2018-09-18T05:22:46.555Z,1003.6
2018-09-18T05:23:47.925Z,1003.7
2018-09-18T05:24:49.277Z,1003.7
2018-09-18T05:25:50.641Z,1003.7
2018-09-18T05:26:52.003Z,1003.7
2018-09-18T05:27:53.361Z,1003.7
2018-09-18T05:28:54.747Z,1003.7
2018-09-18T05:29:56.112Z,1003.7
2018-09-18T05:30:57.480Z,1003.7
2018-09-18T05:31:58.833Z,1003.7
2018-09-18T05:33:00.187Z,1003.8
2018-09-18T05:34:01.547Z,1003.8
2018-09-18T05:35:02.915Z,1003.8
2018-09-18T05:36:04.277Z,1003.8
2018-09-18T05:37:05.661Z,1003.8
2018-09-18T05:38:07.044Z,1003.9
2018-09-18T05:39:08.396Z,1003.8
2018-09-18T05:40:09.757Z,1003.8
2018-09-18T05:41:11.118Z,1003.8
2018-09-18T05:42:12.488Z,1003.8
2018-09-18T05:43:13.866Z,1003.8
2018-09-18T05:44:15.228Z,1003.8
2018-09-18T05:45:16.592Z,1003.8
2018-09-18T05:46:17.951Z,1003.8
2018-09-18T05:47:19.317Z,1003.8
2018-09-18T05:48:20.666Z,1003.8
2018-09-18T05:49:22.033Z,1003.8
2018-09-18T05:50:23.405Z,1003.8
2018-09-18T05:51:24.770Z,1003.8
2018-09-18T05:52:26.133Z,1003.9
2018-09-18T05:53:27.495Z,1003.9
2018-09-18T05:54:28.870Z,1003.9
2018-09-18T05:55:30.230Z,1004.0
2018-09-18T05:56:31.585Z,1004.0
2018-09-18T05:57:32.958Z,1004.0
2018-09-18T05:58:34.306Z,1004.0
2018-09-18T05:59:35.671Z,1004.0
2018-09-18T06:00:37.051Z,1004.1
2018-09-18T06:01:38.410Z,1004.1
2018-09-18T06:02:39.767Z,1004.0
2018-09-18T06:03:41.133Z,1004.0
2018-09-18T06:04:42.503Z,1004.1
2018-09-18T06:05:43.865Z,1004.0
2018-09-18T06:06:45.235Z,1004.1
2018-09-18T06:07:46.626Z,1004.1
2018-09-18T06:08:47.991Z,1004.1
2018-09-18T06:09:49.398Z,1004.1
2018-09-18T06:10:50.750Z,1004.1
2018-09-18T06:11:52.115Z,1004.2
2018-09-18T06:12:53.480Z,1004.2
2018-09-18T06:13:54.837Z,1004.2
2018-09-18T06:14:56.207Z,1004.2
2018-09-18T06:15:57.576Z,1004.2
2018-09-18T06:16:58.947Z,1004.2
2018-09-18T06:18:00.308Z,1004.1
2018-09-18T06:19:01.687Z,1004.1
2018-09-18T06:20:03.047Z,1004.1
2018-09-18T06:21:04.912Z,1004.1
2018-09-18T06:22:06.712Z,1004.1
2018-09-18T06:23:08.053Z,1004.1
2018-09-18T06:24:11.420Z,1004.1
2018-09-18T06:25:12.901Z,1004.1
2018-09-18T06:26:14.396Z,1004.1
2018-09-18T06:27:16.037Z,1004.1
2018-09-18T06:28:17.402Z,1004.1
2018-09-18T06:29:18.770Z,1004.1
2018-09-18T06:30:20.131Z,1004.1
2018-09-18T06:31:21.490Z,1004.1
2018-09-18T06:32:22.976Z,1004.1
2018-09-18T06:33:24.347Z,1004.2
2018-09-18T06:34:25.713Z,1004.2
2018-09-18T06:35:27.097Z,1004.1
2018-09-18T06:36:28.466Z,1004.2
2018-09-18T06:37:29.818Z,1004.2
2018-09-18T06:38:31.182Z,1004.2
2018-09-18T06:39:32.550Z,1004.2
2018-09-18T06:40:33.921Z,1004.2
2018-09-18T06:41:35.281Z,1004.2
2018-09-18T06:42:36.638Z,1004.2
2018-09-18T06:43:37.993Z,1004.3
2018-09-18T06:44:39.352Z,1004.4
2018-09-18T06:45:40.718Z,1004.3
2018-09-18T06:46:42.088Z,1004.4
2018-09-18T06:47:43.457Z,1004.4
2018-09-18T06:48:44.826Z,1004.4
2018-09-18T06:49:46.183Z,1004.3
2018-09-18T06:50:47.561Z,1004.4
2018-09-18T06:51:48.920Z,1004.3
2018-09-18T06:52:50.276Z,1004.4
2018-09-18T06:53:51.636Z,1004.4
2018-09-18T06:54:53.002Z,1004.4
2018-09-18T06:55:54.367Z,1004.3
2018-09-18T06:56:55.731Z,1004.3
2018-09-18T06:57:57.112Z,1004.3
2018-09-18T06:58:58.480Z,1004.4
2018-09-18T06:59:59.853Z,1004.4
2018-09-18T07:01:01.219Z,1004.4
2018-09-18T07:02:02.597Z,1004.4
2018-09-18T07:03:03.976Z,1004.5
2018-09-18T07:04:05.345Z,1004.5
2018-09-18T07:05:06.720Z,1004.5
2018-09-18T07:06:08.101Z,1004.5
2018-09-18T07:07:09.465Z,1004.4
2018-09-18T07:08:10.828Z,1004.4
2018-09-18T07:09:12.199Z,1004.5
2018-09-18T07:10:13.576Z,1004.5
2018-09-18T07:11:14.938Z,1004.4
2018-09-18T07:12:16.305Z,1004.5
2018-09-18T07:13:17.665Z,1004.5
2018-09-18T07:14:19.041Z,1004.5
2018-09-18T07:15:20.403Z,1004.5
2018-09-18T07:16:21.777Z,1004.5
2018-09-18T07:17:23.157Z,1004.5
2018-09-18T07:18:24.535Z,1004.5
2018-09-18T07:19:25.908Z,1004.5
2018-09-18T07:20:27.278Z,1004.5
2018-09-18T07:21:28.641Z,1004.5
2018-09-18T07:22:30.031Z,1004.5
2018-09-18T07:23:31.405Z,1004.6
2018-09-18T07:24:32.783Z,1004.7
2018-09-18T07:25:34.157Z,1004.6
2018-09-18T07:26:56.970Z,1004.7
2018-09-18T07:27:58.336Z,1004.6
2018-09-18T07:28:59.698Z,1004.7
2018-09-18T07:30:01.082Z,1004.6
2018-09-18T07:31:02.448Z,1004.7
2018-09-18T07:32:03.822Z,1004.7
2018-09-18T07:33:05.192Z,1004.6
2018-09-18T07:34:06.605Z,1004.7
2018-09-18T07:35:07.967Z,1004.7
2018-09-18T07:36:09.362Z,1004.7
2018-09-18T07:37:10.707Z,1004.7
2018-09-18T07:38:12.086Z,1004.7
2018-09-18T07:39:13.456Z,1004.7
2018-09-18T07:40:14.836Z,1004.8
2018-09-18T07:41:16.202Z,1004.7
2018-09-18T07:42:17.579Z,1004.7
2018-09-18T07:43:18.937Z,1004.8
2018-09-18T07:44:20.308Z,1004.7
2018-09-18T07:45:21.689Z,1004.7
2018-09-18T07:46:23.066Z,1004.8
2018-09-18T07:47:24.447Z,1004.8
2018-09-18T07:48:25.819Z,1004.8
2018-09-18T07:49:27.952Z,1004.8
2018-09-18T07:50:29.328Z,1004.8
2018-09-18T07:51:30.737Z,1004.8
2018-09-18T07:52:32.107Z,1004.8
2018-09-18T07:53:33.479Z,1004.8
2018-09-18T07:54:34.850Z,1004.8
2018-09-18T07:55:36.214Z,1004.8
2018-09-18T07:56:37.602Z,1004.8
2018-09-18T07:57:38.973Z,1004.8
2018-09-18T07:58:40.346Z,1004.9
2018-09-18T07:59:41.722Z,1004.9
2018-09-18T08:00:43.108Z,1004.9
2018-09-18T08:01:44.482Z,1004.9
2018-09-18T08:02:45.858Z,1004.9
2018-09-18T08:03:47.249Z,1004.9
2018-09-18T08:04:48.618Z,1004.9
2018-09-18T08:05:49.985Z,1004.9
2018-09-18T08:06:51.373Z,1004.9
2018-09-18T08:07:52.733Z,1004.9
2018-09-18T08:08:54.124Z,1004.9
2018-09-18T08:09:55.489Z,1004.9
2018-09-18T08:10:57.869Z,1004.9
2018-09-18T08:11:59.172Z,1004.9
2018-09-18T08:13:00.555Z,1004.9
2018-09-18T08:14:01.938Z,1004.9
2018-09-18T08:15:03.315Z,1004.8
2018-09-18T08:16:04.692Z,1004.9
2018-09-18T08:17:06.064Z,1004.8
2018-09-18T08:18:07.448Z,1004.8
2018-09-18T08:19:08.844Z,1004.8
2018-09-18T08:20:10.212Z,1004.8
2018-09-18T08:21:11.594Z,1004.8
2018-09-18T08:22:12.997Z,1004.9
2018-09-18T08:23:14.363Z,1004.9
2018-09-18T08:24:15.742Z,1004.9
2018-09-18T08:25:17.154Z,1004.9
2018-09-18T08:26:18.490Z,1004.9
2018-09-18T08:27:19.873Z,1004.8
2018-09-18T08:28:21.255Z,1004.8
2018-09-18T08:29:22.637Z,1004.9
2018-09-18T08:30:24.010Z,1004.9
2018-09-18T08:31:25.374Z,1005.0
2018-09-18T08:32:28.077Z,1004.9
2018-09-18T08:33:29.457Z,1004.9
2018-09-18T08:34:30.838Z,1005.0
2018-09-18T08:35:32.210Z,1005.0
2018-09-18T08:36:33.595Z,1005.0
2018-09-18T08:37:34.973Z,1004.9
2018-09-18T08:38:36.358Z,1005.0
2018-09-18T08:39:37.824Z,1004.9
2018-09-18T08:40:39.099Z,1004.9
2018-09-18T08:41:40.483Z,1004.9
2018-09-18T08:42:41.824Z,1005.0
2018-09-18T08:43:43.205Z,1004.9
2018-09-18T08:44:44.591Z,1005.0
2018-09-18T08:45:45.963Z,1004.9
2018-09-18T08:46:47.351Z,1004.9
2018-09-18T08:47:48.729Z,1004.9
2018-09-18T08:48:50.113Z,1005.0
2018-09-18T08:49:51.472Z,1005.0
2018-09-18T08:50:52.887Z,1004.9
2018-09-18T08:51:54.337Z,1005.0
2018-09-18T08:52:55.595Z,1004.9
2018-09-18T08:53:57.005Z,1005.0
2018-09-18T08:54:58.421Z,1004.9
2018-09-18T08:55:59.786Z,1005.0
2018-09-18T08:57:01.163Z,1005.0
2018-09-18T08:58:02.538Z,1004.9
2018-09-18T08:59:03.932Z,1004.9
2018-09-18T09:00:05.305Z,1004.9
2018-09-18T09:01:06.759Z,1004.8
2018-09-18T09:02:08.083Z,1004.9
2018-09-18T09:03:09.498Z,1004.8
2018-09-18T09:04:10.866Z,1004.8
2018-09-18T09:05:12.240Z,1004.8
2018-09-18T09:06:13.598Z,1004.8
2018-09-18T09:07:14.989Z,1004.8
2018-09-18T09:08:16.489Z,1004.8
2018-09-18T09:09:17.755Z,1004.8
2018-09-18T09:10:19.127Z,1004.9
2018-09-18T09:11:20.477Z,1004.9
2018-09-18T09:12:21.848Z,1004.8
2018-09-18T09:13:23.229Z,1004.8
2018-09-18T09:14:24.688Z,1004.8
2018-09-18T09:15:25.985Z,1004.8
2018-09-18T09:17:06.878Z,1004.9
2018-09-18T09:18:08.402Z,1004.8
2018-09-18T09:19:29.766Z,1004.9
2018-09-18T09:20:31.207Z,1004.9
2018-09-18T09:21:52.747Z,1004.9
2018-09-18T09:22:54.023Z,1004.9
2018-09-18T09:23:55.339Z,1004.8
2018-09-18T09:24:56.739Z,1004.8
2018-09-18T09:25:58.091Z,1004.9
2018-09-18T09:26:59.568Z,1004.8
2018-09-18T09:28:00.919Z,1004.9
2018-09-18T09:29:02.288Z,1004.9
2018-09-18T09:30:03.732Z,1004.9
2018-09-18T09:31:05.057Z,1004.8
2018-09-18T09:32:06.462Z,1004.9
2018-09-18T09:33:07.764Z,1004.9
2018-09-18T09:34:09.149Z,1004.9
2018-09-18T09:35:10.555Z,1004.9
2018-09-18T09:36:11.951Z,1004.8
2018-09-18T09:37:13.440Z,1004.8
2018-09-18T09:38:14.698Z,1004.7
2018-09-18T09:39:16.060Z,1004.7
2018-09-18T09:40:17.430Z,1004.7
2018-09-18T09:41:18.813Z,1004.8
2018-09-18T09:42:20.203Z,1004.7
2018-09-18T09:43:21.592Z,1004.7
2018-09-18T09:44:22.970Z,1004.7
2018-09-18T09:45:24.346Z,1004.7
2018-09-18T09:46:25.734Z,1004.8
2018-09-18T09:47:27.128Z,1004.7
2018-09-18T09:48:28.498Z,1004.6
2018-09-18T09:49:29.909Z,1004.6
2018-09-18T09:50:31.288Z,1004.6
2018-09-18T09:51:32.695Z,1004.7
2018-09-18T09:52:34.063Z,1004.7
2018-09-18T09:53:35.452Z,1004.7
2018-09-18T09:54:36.845Z,1004.8
2018-09-18T09:55:38.211Z,1004.8
2018-09-18T09:56:39.603Z,1004.8
2018-09-18T09:57:40.985Z,1004.6
2018-09-18T09:58:42.378Z,1004.6
2018-09-18T09:59:43.780Z,1004.6
2018-09-18T10:00:45.160Z,1004.7
2018-09-18T10:01:46.547Z,1004.6
2018-09-18T10:02:47.963Z,1004.6
2018-09-18T10:03:49.276Z,1004.6
2018-09-18T10:04:50.655Z,1004.6
2018-09-18T10:05:52.035Z,1004.6
2018-09-18T10:06:53.409Z,1004.6
2018-09-18T10:07:54.784Z,1004.5
2018-09-18T10:08:56.180Z,1004.6
2018-09-18T10:09:57.574Z,1004.5
2018-09-18T10:10:59.078Z,1004.5
2018-09-18T10:12:00.306Z,1004.5
2018-09-18T10:13:01.697Z,1004.5
2018-09-18T10:14:03.068Z,1004.5
2018-09-18T10:15:04.455Z,1004.5
2018-09-18T10:16:05.863Z,1004.6
2018-09-18T10:17:07.255Z,1004.4
2018-09-18T10:18:08.651Z,1004.4
2018-09-18T10:19:10.011Z,1004.5
2018-09-18T10:20:11.393Z,1004.5
2018-09-18T10:21:12.782Z,1004.5
2018-09-18T10:22:14.160Z,1004.5
2018-09-18T10:23:15.537Z,1004.5
2018-09-18T10:24:16.911Z,1004.5
2018-09-18T10:25:18.291Z,1004.4
2018-09-18T10:26:19.810Z,1004.4
2018-09-18T10:27:21.054Z,1004.5
2018-09-18T10:28:22.452Z,1004.4
2018-09-18T10:29:23.835Z,1004.4
2018-09-18T10:30:25.211Z,1004.4
2018-09-18T10:31:26.576Z,1004.3
2018-09-18T10:32:28.017Z,1004.3
2018-09-18T10:33:29.364Z,1004.3
2018-09-18T10:34:30.763Z,1004.3
2018-09-18T10:35:32.136Z,1004.3
2018-09-18T10:36:33.524Z,1004.4
2018-09-18T10:37:34.893Z,1004.4
2018-09-18T10:38:36.274Z,1004.3
2018-09-18T10:39:37.677Z,1004.2
2018-09-18T10:40:39.044Z,1004.3
2018-09-18T10:41:40.434Z,1004.3
2018-09-18T10:42:41.771Z,1004.3
2018-09-18T10:43:43.154Z,1004.3
2018-09-18T10:44:44.536Z,1004.2
2018-09-18T10:45:45.922Z,1004.2
2018-09-18T10:46:47.326Z,1004.3
2018-09-18T10:47:48.701Z,1004.2
2018-09-18T10:48:50.098Z,1004.2
2018-09-18T10:49:51.451Z,1004.3
2018-09-18T10:50:52.826Z,1004.1
2018-09-18T10:51:54.196Z,1004.2
2018-09-18T10:52:55.597Z,1004.2
2018-09-18T10:53:56.984Z,1004.1
2018-09-18T10:54:58.374Z,1004.2
2018-09-18T10:55:59.749Z,1004.2
2018-09-18T10:57:01.129Z,1003.9
2018-09-18T10:58:02.544Z,1003.9
2018-09-18T10:59:03.924Z,1004.0
2018-09-18T11:00:05.335Z,1004.0
2018-09-18T11:01:06.741Z,1004.0
2018-09-18T11:02:08.149Z,1004.1
2018-09-18T11:03:09.477Z,1004.0
2018-09-18T11:04:10.885Z,1004.0
2018-09-18T11:05:12.251Z,1004.0
2018-09-18T11:06:13.669Z,1004.0
2018-09-18T11:07:15.107Z,1003.9
2018-09-18T11:08:16.472Z,1004.1
2018-09-18T11:09:17.778Z,1004.1
2018-09-18T11:10:19.196Z,1004.1
2018-09-18T11:11:20.509Z,1004.1
2018-09-18T11:12:21.888Z,1004.0
2018-09-18T11:13:23.306Z,1004.0
2018-09-18T11:14:24.635Z,1004.1
2018-09-18T11:15:26.026Z,1004.1
2018-09-18T11:16:27.368Z,1004.1
2018-09-18T11:17:28.726Z,1004.0
2018-09-18T11:18:30.184Z,1004.1
2018-09-18T11:19:31.463Z,1004.0
2018-09-18T11:20:32.821Z,1004.0
2018-09-18T11:21:34.289Z,1004.0
2018-09-18T11:22:35.606Z,1004.0
2018-09-18T11:23:36.998Z,1004.0
2018-09-18T11:24:38.365Z,1003.9
2018-09-18T11:25:39.744Z,1003.9
2018-09-18T11:26:41.139Z,1003.9
2018-09-18T11:27:42.521Z,1003.9
2018-09-18T11:28:43.932Z,1004.0
2018-09-18T11:29:45.302Z,1003.9
2018-09-18T11:30:46.681Z,1003.9
2018-09-18T11:31:48.082Z,1004.0
2018-09-18T11:32:49.547Z,1003.9
2018-09-18T11:33:50.804Z,1003.9
2018-09-18T11:34:52.222Z,1004.0
2018-09-18T11:35:53.583Z,1004.0
2018-09-18T11:36:54.972Z,1003.9
2018-09-18T11:37:56.351Z,1003.9
2018-09-18T11:38:57.736Z,1004.0
2018-09-18T11:39:59.120Z,1003.8
2018-09-18T11:41:00.502Z,1003.9
2018-09-18T11:42:01.879Z,1003.9
2018-09-18T11:43:03.261Z,1003.9
2018-09-18T11:44:04.640Z,1003.9
2018-09-18T11:45:06.026Z,1003.9
2018-09-18T11:46:07.661Z,1003.9
2018-09-18T11:47:09.706Z,1003.9
2018-09-18T11:48:11.099Z,1003.9
2018-09-18T11:49:12.477Z,1003.8
2018-09-18T11:50:13.860Z,1003.7
2018-09-18T11:51:15.256Z,1003.7
2018-09-18T11:52:16.647Z,1003.8
2018-09-18T11:53:18.044Z,1003.8
2018-09-18T11:54:19.411Z,1003.8
2018-09-18T11:55:20.810Z,1003.9
2018-09-18T11:56:22.190Z,1003.8
2018-09-18T11:57:23.586Z,1003.9
2018-09-18T11:58:25.021Z,1003.9
2018-09-18T11:59:26.322Z,1003.8
2018-09-18T12:00:27.709Z,1003.9
2018-09-18T12:01:29.111Z,1003.8
2018-09-18T12:02:30.499Z,1003.7
2018-09-18T12:03:31.867Z,1003.9
2018-09-18T12:04:33.327Z,1003.7
2018-09-18T12:05:34.645Z,1003.9
2018-09-18T12:06:36.032Z,1003.8
2018-09-18T12:07:37.405Z,1003.7
2018-09-18T12:08:39.432Z,1003.7
2018-09-18T12:09:40.765Z,1003.9
2018-09-18T12:10:42.147Z,1003.7
2018-09-18T12:11:43.524Z,1003.7
2018-09-18T12:12:44.917Z,1003.7
2018-09-18T12:13:46.311Z,1003.7
2018-09-18T12:14:47.700Z,1003.9
2018-09-18T12:15:49.096Z,1003.7
2018-09-18T12:16:50.519Z,1003.8
2018-09-18T12:17:51.861Z,1003.7
2018-09-18T12:18:53.248Z,1003.6
2018-09-18T12:19:54.634Z,1003.7
2018-09-18T12:20:56.005Z,1003.6
2018-09-18T12:21:57.386Z,1003.7
2018-09-18T12:22:58.770Z,1003.7
2018-09-18T12:24:00.160Z,1003.7
2018-09-18T12:25:01.547Z,1003.6
2018-09-18T12:26:02.936Z,1003.5
2018-09-18T12:27:04.322Z,1003.7
2018-09-18T12:28:05.743Z,1003.7
2018-09-18T12:29:07.126Z,1003.7
2018-09-18T12:30:08.491Z,1003.7
2018-09-18T12:31:09.896Z,1003.6
2018-09-18T12:32:11.309Z,1003.5
2018-09-18T12:33:12.677Z,1003.6
2018-09-18T12:34:14.060Z,1003.6
2018-09-18T12:35:15.454Z,1003.7
2018-09-18T12:36:16.827Z,1003.6
2018-09-18T12:37:18.206Z,1003.6
2018-09-18T12:38:19.590Z,1003.7
2018-09-18T12:39:20.969Z,1003.6
2018-09-18T12:40:22.352Z,1003.6
2018-09-18T12:41:23.753Z,1003.6
2018-09-18T12:42:25.207Z,1003.6
2018-09-18T12:43:26.465Z,1003.5
2018-09-18T12:44:27.849Z,1003.5
2018-09-18T12:45:29.242Z,1003.5
2018-09-18T12:46:30.622Z,1003.6
2018-09-18T12:47:32.002Z,1003.5